sensor_id;sensor_type;location;lat;lon;timestamp;pressure;altitude;pressure_sealevel;temperature;humidity
61136;BME280;47021;51.340;12.432;2022-09-09T00:04:00;99672.22;;;19.44;62.61
61136;BME280;47021;51.340;12.432;2022-09-09T00:06:43;99667.75;;;19.44;62.24
61136;BME280;47021;51.340;12.432;2022-09-09T00:09:26;99666.97;;;19.50;62.22
61136;BME280;47021;51.340;12.432;2022-09-09T00:12:06;99671.25;;;19.51;62.12
61136;BME280;47021;51.340;12.432;2022-09-09T00:14:54;99671.63;;;19.48;62.77
61136;BME280;47021;51.340;12.432;2022-09-09T00:17:36;99667.72;;;19.38;62.58
61136;BME280;47021;51.340;12.432;2022-09-09T00:20:20;99675.97;;;19.28;63.04
61136;BME280;47021;51.340;12.432;2022-09-09T00:28:26;99674.22;;;19.35;62.74
61136;BME280;47021;51.340;12.432;2022-09-09T00:31:13;99664.19;;;19.31;62.83
61136;BME280;47021;51.340;12.432;2022-09-09T00:33:47;99676.66;;;19.09;63.90
61136;BME280;47021;51.340;12.432;2022-09-09T00:36:18;99667.03;;;19.29;62.77
61136;BME280;47021;51.340;12.432;2022-09-09T00:39:04;99675.78;;;19.30;62.82
61136;BME280;47021;51.340;12.432;2022-09-09T00:42:33;99658.94;;;19.10;62.96
61136;BME280;47021;51.340;12.432;2022-09-09T00:44:35;99660.47;;;19.25;62.50
61136;BME280;47021;51.340;12.432;2022-09-09T00:49:56;99666.72;;;19.39;62.16
61136;BME280;47021;51.340;12.432;2022-09-09T00:52:47;99674.25;;;19.42;62.25
61136;BME280;47021;51.340;12.432;2022-09-09T00:55:20;99668.72;;;19.37;61.83
61136;BME280;47021;51.340;12.432;2022-09-09T00:58:02;99666.00;;;19.30;62.26
61136;BME280;47021;51.340;12.432;2022-09-09T01:00:31;99669.47;;;19.31;62.14
61136;BME280;47021;51.340;12.432;2022-09-09T01:03:28;99666.19;;;19.29;62.52
61136;BME280;47021;51.340;12.432;2022-09-09T01:06:12;99677.75;;;19.21;62.48
61136;BME280;47021;51.340;12.432;2022-09-09T01:09:15;99666.00;;;19.30;62.50
61136;BME280;47021;51.340;12.432;2022-09-09T01:12:15;99669.38;;;19.18;62.54
61136;BME280;47021;51.340;12.432;2022-09-09T01:14:56;99674.56;;;19.04;62.88
61136;BME280;47021;51.340;12.432;2022-09-09T01:17:31;99676.59;;;19.02;63.15
61136;BME280;47021;51.340;12.432;2022-09-09T01:20:15;99671.78;;;18.85;63.61
61136;BME280;47021;51.340;12.432;2022-09-09T01:23:16;99679.25;;;19.02;63.39
61136;BME280;47021;51.340;12.432;2022-09-09T01:26:22;99677.28;;;19.11;62.99
61136;BME280;47021;51.340;12.432;2022-09-09T01:28:51;99673.16;;;19.02;63.04
61136;BME280;47021;51.340;12.432;2022-09-09T01:31:32;99679.66;;;18.99;63.59
61136;BME280;47021;51.340;12.432;2022-09-09T01:34:12;99667.59;;;18.69;63.86
61136;BME280;47021;51.340;12.432;2022-09-09T01:36:57;99676.13;;;18.92;63.83
61136;BME280;47021;51.340;12.432;2022-09-09T01:39:33;99669.16;;;18.64;64.80
61136;BME280;47021;51.340;12.432;2022-09-09T01:42:03;99667.28;;;18.79;63.83
61136;BME280;47021;51.340;12.432;2022-09-09T01:44:30;99672.66;;;18.92;63.28
61136;BME280;47021;51.340;12.432;2022-09-09T01:47:03;99665.34;;;18.94;63.55
61136;BME280;47021;51.340;12.432;2022-09-09T01:49:28;99668.47;;;18.76;63.73
61136;BME280;47021;51.340;12.432;2022-09-09T01:51:55;99669.38;;;18.90;64.12
61136;BME280;47021;51.340;12.432;2022-09-09T01:54:25;99664.63;;;19.07;62.99
61136;BME280;47021;51.340;12.432;2022-09-09T02:00:11;99670.25;;;18.97;63.29
61136;BME280;47021;51.340;12.432;2022-09-09T02:05:27;99660.91;;;19.01;63.40
61136;BME280;47021;51.340;12.432;2022-09-09T02:08:18;99663.56;;;19.01;63.05
61136;BME280;47021;51.340;12.432;2022-09-09T02:11:06;99668.31;;;18.84;63.64
61136;BME280;47021;51.340;12.432;2022-09-09T02:13:35;99669.69;;;19.01;63.13
61136;BME280;47021;51.340;12.432;2022-09-09T02:16:28;99668.00;;;18.94;63.23
61136;BME280;47021;51.340;12.432;2022-09-09T02:21:33;99664.72;;;18.92;63.59
61136;BME280;47021;51.340;12.432;2022-09-09T02:24:00;99668.81;;;18.94;63.32
61136;BME280;47021;51.340;12.432;2022-09-09T02:26:35;99666.75;;;18.90;63.23
61136;BME280;47021;51.340;12.432;2022-09-09T02:29:03;99682.53;;;18.77;63.87
61136;BME280;47021;51.340;12.432;2022-09-09T02:31:31;99683.81;;;18.87;63.54
61136;BME280;47021;51.340;12.432;2022-09-09T02:34:00;99681.13;;;18.81;63.87
61136;BME280;47021;51.340;12.432;2022-09-09T02:36:31;99682.06;;;18.73;63.82
61136;BME280;47021;51.340;12.432;2022-09-09T02:38:57;99672.81;;;18.84;63.64
61136;BME280;47021;51.340;12.432;2022-09-09T02:41:34;99665.28;;;18.87;63.69
61136;BME280;47021;51.340;12.432;2022-09-09T02:44:08;99670.59;;;18.87;63.23
61136;BME280;47021;51.340;12.432;2022-09-09T02:47:01;99672.41;;;18.87;63.80
61136;BME280;47021;51.340;12.432;2022-09-09T02:57:53;99680.50;;;18.58;64.58
61136;BME280;47021;51.340;12.432;2022-09-09T03:00:25;99679.16;;;18.68;64.39
61136;BME280;47021;51.340;12.432;2022-09-09T03:02:53;99675.31;;;18.71;64.34
61136;BME280;47021;51.340;12.432;2022-09-09T03:05:18;99677.19;;;18.49;64.34
61136;BME280;47021;51.340;12.432;2022-09-09T03:07:43;99684.84;;;18.65;64.29
61136;BME280;47021;51.340;12.432;2022-09-09T03:10:08;99674.34;;;18.72;63.79
61136;BME280;47021;51.340;12.432;2022-09-09T03:12:36;99684.38;;;18.83;63.45
61136;BME280;47021;51.340;12.432;2022-09-09T03:15:08;99685.34;;;18.75;63.49
61136;BME280;47021;51.340;12.432;2022-09-09T03:17:38;99681.28;;;18.79;63.00
61136;BME280;47021;51.340;12.432;2022-09-09T03:20:03;99681.00;;;18.68;63.64
61136;BME280;47021;51.340;12.432;2022-09-09T03:22:37;99679.78;;;18.70;63.32
61136;BME280;47021;51.340;12.432;2022-09-09T03:25:02;99684.44;;;18.68;63.96
61136;BME280;47021;51.340;12.432;2022-09-09T03:27:29;99673.44;;;18.65;63.55
61136;BME280;47021;51.340;12.432;2022-09-09T03:29:56;99672.41;;;18.66;64.11
61136;BME280;47021;51.340;12.432;2022-09-09T03:32:23;99670.91;;;18.57;64.15
61136;BME280;47021;51.340;12.432;2022-09-09T03:34:52;99674.34;;;18.72;63.55
61136;BME280;47021;51.340;12.432;2022-09-09T03:37:19;99673.13;;;18.74;63.31
61136;BME280;47021;51.340;12.432;2022-09-09T03:39:44;99675.31;;;18.71;63.14
61136;BME280;47021;51.340;12.432;2022-09-09T03:42:13;99677.03;;;18.57;63.94
61136;BME280;47021;51.340;12.432;2022-09-09T03:44:38;99674.38;;;18.78;63.43
61136;BME280;47021;51.340;12.432;2022-09-09T03:47:03;99669.03;;;18.72;63.11
61136;BME280;47021;51.340;12.432;2022-09-09T03:49:31;99659.75;;;18.82;62.96
61136;BME280;47021;51.340;12.432;2022-09-09T03:51:56;99672.41;;;18.66;63.01
61136;BME280;47021;51.340;12.432;2022-09-09T03:54:28;99670.91;;;18.78;63.09
61136;BME280;47021;51.340;12.432;2022-09-09T03:56:55;99671.06;;;18.70;63.50
61136;BME280;47021;51.340;12.432;2022-09-09T03:59:20;99675.31;;;18.50;63.94
61136;BME280;47021;51.340;12.432;2022-09-09T04:01:45;99665.25;;;18.60;63.65
61136;BME280;47021;51.340;12.432;2022-09-09T04:04:11;99662.81;;;18.58;63.53
61136;BME280;47021;51.340;12.432;2022-09-09T04:06:39;99656.56;;;18.66;63.16
61136;BME280;47021;51.340;12.432;2022-09-09T04:09:04;99664.06;;;18.62;63.36
61136;BME280;47021;51.340;12.432;2022-09-09T04:11:35;99669.16;;;18.43;64.05
61136;BME280;47021;51.340;12.432;2022-09-09T04:14:00;99663.13;;;18.49;63.90
61136;BME280;47021;51.340;12.432;2022-09-09T04:16:27;99672.59;;;18.43;64.25
61136;BME280;47021;51.340;12.432;2022-09-09T04:18:52;99671.53;;;18.38;64.20
61136;BME280;47021;51.340;12.432;2022-09-09T04:21:18;99667.19;;;18.30;64.28
61136;BME280;47021;51.340;12.432;2022-09-09T04:23:43;99672.91;;;18.33;64.58
61136;BME280;47021;51.340;12.432;2022-09-09T04:26:09;99673.91;;;18.32;64.12
61136;BME280;47021;51.340;12.432;2022-09-09T04:28:40;99674.97;;;18.38;64.47
61136;BME280;47021;51.340;12.432;2022-09-09T04:31:32;99676.41;;;18.55;63.57
61136;BME280;47021;51.340;12.432;2022-09-09T04:33:58;99678.69;;;18.58;63.94
61136;BME280;47021;51.340;12.432;2022-09-09T04:36:32;99680.00;;;18.48;64.35
61136;BME280;47021;51.340;12.432;2022-09-09T04:39:10;99669.88;;;18.72;63.23
61136;BME280;47021;51.340;12.432;2022-09-09T04:41:37;99681.25;;;18.73;63.31
61136;BME280;47021;51.340;12.432;2022-09-09T04:44:08;99682.69;;;18.75;62.87
61136;BME280;47021;51.340;12.432;2022-09-09T04:46:34;99684.59;;;18.81;62.98
61136;BME280;47021;51.340;12.432;2022-09-09T04:49:00;99678.19;;;18.97;62.38
61136;BME280;47021;51.340;12.432;2022-09-09T04:51:27;99672.72;;;18.98;62.41
61136;BME280;47021;51.340;12.432;2022-09-09T04:53:52;99677.38;;;18.96;62.58
61136;BME280;47021;51.340;12.432;2022-09-09T04:56:29;99671.59;;;19.14;62.21
61136;BME280;47021;51.340;12.432;2022-09-09T04:58:54;99668.84;;;19.01;63.16
61136;BME280;47021;51.340;12.432;2022-09-09T05:01:21;99677.63;;;19.29;62.23
61136;BME280;47021;51.340;12.432;2022-09-09T05:03:51;99673.22;;;19.36;62.47
61136;BME280;47021;51.340;12.432;2022-09-09T05:06:33;99681.59;;;19.19;61.35
61136;BME280;47021;51.340;12.432;2022-09-09T05:09:00;99680.00;;;19.45;61.89
61136;BME280;47021;51.340;12.432;2022-09-09T05:11:37;99692.47;;;19.58;62.13
61136;BME280;47021;51.340;12.432;2022-09-09T05:14:11;99687.06;;;19.73;61.13
61136;BME280;47021;51.340;12.432;2022-09-09T05:16:45;99690.53;;;19.73;60.42
61136;BME280;47021;51.340;12.432;2022-09-09T05:19:23;99692.34;;;19.66;61.28
61136;BME280;47021;51.340;12.432;2022-09-09T05:21:59;99693.69;;;19.55;60.94
61136;BME280;47021;51.340;12.432;2022-09-09T05:24:33;99688.31;;;19.83;61.19
61136;BME280;47021;51.340;12.432;2022-09-09T05:27:07;99695.53;;;20.02;60.23
61136;BME280;47021;51.340;12.432;2022-09-09T05:32:22;99691.16;;;19.75;60.34
61136;BME280;47021;51.340;12.432;2022-09-09T05:35:22;99703.53;;;20.15;59.42
61136;BME280;47021;51.340;12.432;2022-09-09T05:44:12;99675.03;;;20.24;58.84
61136;BME280;47021;51.340;12.432;2022-09-09T05:53:36;99695.63;;;20.22;58.82
61136;BME280;47021;51.340;12.432;2022-09-09T06:02:09;99700.25;;;20.74;57.68
61136;BME280;47021;51.340;12.432;2022-09-09T06:04:47;99680.66;;;20.94;57.09
61136;BME280;47021;51.340;12.432;2022-09-09T06:07:21;99692.06;;;20.82;57.73
61136;BME280;47021;51.340;12.432;2022-09-09T06:09:47;99695.16;;;20.85;57.07
61136;BME280;47021;51.340;12.432;2022-09-09T06:12:39;99700.47;;;21.12;56.54
61136;BME280;47021;51.340;12.432;2022-09-09T06:15:22;99700.03;;;21.34;56.40
61136;BME280;47021;51.340;12.432;2022-09-09T06:21:04;99690.84;;;21.24;56.92
61136;BME280;47021;51.340;12.432;2022-09-09T06:23:39;99697.78;;;21.38;56.29
61136;BME280;47021;51.340;12.432;2022-09-09T06:26:22;99690.03;;;21.17;56.67
61136;BME280;47021;51.340;12.432;2022-09-09T06:28:49;99696.97;;;21.11;57.15
61136;BME280;47021;51.340;12.432;2022-09-09T06:31:25;99699.41;;;21.52;56.26
61136;BME280;47021;51.340;12.432;2022-09-09T06:34:08;99696.84;;;21.83;55.99
61136;BME280;47021;51.340;12.432;2022-09-09T06:36:36;99678.66;;;21.73;55.92
61136;BME280;47021;51.340;12.432;2022-09-09T06:39:05;99695.41;;;21.87;55.00
61136;BME280;47021;51.340;12.432;2022-09-09T06:41:50;99707.56;;;22.14;55.04
61136;BME280;47021;51.340;12.432;2022-09-09T06:44:15;99696.00;;;22.02;55.53
61136;BME280;47021;51.340;12.432;2022-09-09T06:46:48;99693.00;;;22.23;54.90
61136;BME280;47021;51.340;12.432;2022-09-09T06:49:27;99711.44;;;22.25;54.77
61136;BME280;47021;51.340;12.432;2022-09-09T06:52:00;99700.81;;;22.18;54.99
61136;BME280;47021;51.340;12.432;2022-09-09T06:54:26;99698.66;;;21.96;55.39
61136;BME280;47021;51.340;12.432;2022-09-09T06:56:51;99703.44;;;22.25;54.76
61136;BME280;47021;51.340;12.432;2022-09-09T06:59:16;99709.38;;;22.27;54.62
61136;BME280;47021;51.340;12.432;2022-09-09T07:01:43;99712.53;;;22.42;54.33
61136;BME280;47021;51.340;12.432;2022-09-09T07:04:14;99704.50;;;22.62;54.20
61136;BME280;47021;51.340;12.432;2022-09-09T07:06:46;99705.75;;;22.84;53.56
61136;BME280;47021;51.340;12.432;2022-09-09T07:09:13;99694.94;;;23.03;53.12
61136;BME280;47021;51.340;12.432;2022-09-09T07:11:47;99704.50;;;23.11;52.89
61136;BME280;47021;51.340;12.432;2022-09-09T07:14:25;99704.50;;;23.11;52.68
61136;BME280;47021;51.340;12.432;2022-09-09T07:16:51;99708.75;;;23.18;52.66
61136;BME280;47021;51.340;12.432;2022-09-09T07:19:44;99711.25;;;23.13;52.34
61136;BME280;47021;51.340;12.432;2022-09-09T07:22:27;99697.22;;;22.75;52.74
61136;BME280;47021;51.340;12.432;2022-09-09T07:24:53;99718.91;;;23.03;52.77
61136;BME280;47021;51.340;12.432;2022-09-09T07:27:18;99713.09;;;22.88;52.96
61136;BME280;47021;51.340;12.432;2022-09-09T07:29:44;99702.22;;;23.14;52.65
61136;BME280;47021;51.340;12.432;2022-09-09T07:32:10;99704.72;;;23.09;52.14
61136;BME280;47021;51.340;12.432;2022-09-09T07:34:35;99695.78;;;23.22;52.44
61136;BME280;47021;51.340;12.432;2022-09-09T07:37:02;99694.47;;;23.38;51.40
61136;BME280;47021;51.340;12.432;2022-09-09T07:39:35;99700.91;;;23.48;51.44
61136;BME280;47021;51.340;12.432;2022-09-09T07:42:04;99697.34;;;23.54;51.67
61136;BME280;47021;51.340;12.432;2022-09-09T07:44:29;99706.59;;;23.27;52.26
61136;BME280;47021;51.340;12.432;2022-09-09T07:47:02;99707.50;;;23.21;51.33
61136;BME280;47021;51.340;12.432;2022-09-09T07:49:30;99708.59;;;22.89;52.77
61136;BME280;47021;51.340;12.432;2022-09-09T07:51:55;99708.66;;;22.82;52.67
61136;BME280;47021;51.340;12.432;2022-09-09T07:54:33;99712.72;;;23.09;52.06
61136;BME280;47021;51.340;12.432;2022-09-09T07:56:58;99729.34;;;23.05;52.04
61136;BME280;47021;51.340;12.432;2022-09-09T07:59:23;99722.84;;;23.01;52.35
61136;BME280;47021;51.340;12.432;2022-09-09T08:05:07;99738.34;;;23.35;51.51
61136;BME280;47021;51.340;12.432;2022-09-09T08:07:39;99736.06;;;23.57;51.80
61136;BME280;47021;51.340;12.432;2022-09-09T08:10:06;99733.66;;;23.73;51.25
61136;BME280;47021;51.340;12.432;2022-09-09T08:12:33;99713.72;;;24.12;50.11
61136;BME280;47021;51.340;12.432;2022-09-09T08:14:58;99723.94;;;23.97;50.71
61136;BME280;47021;51.340;12.432;2022-09-09T08:17:25;99729.88;;;24.17;50.26
61136;BME280;47021;51.340;12.432;2022-09-09T08:19:57;99730.66;;;24.36;50.03
61136;BME280;47021;51.340;12.432;2022-09-09T08:22:22;99728.69;;;24.61;49.40
61136;BME280;47021;51.340;12.432;2022-09-09T08:24:47;99730.72;;;24.77;48.82
61136;BME280;47021;51.340;12.432;2022-09-09T08:27:52;99732.22;;;24.85;48.77
61136;BME280;47021;51.340;12.432;2022-09-09T08:30:19;99732.13;;;24.80;48.89
61136;BME280;47021;51.340;12.432;2022-09-09T08:32:45;99723.44;;;24.84;48.47
61136;BME280;47021;51.340;12.432;2022-09-09T08:35:17;99721.34;;;24.86;48.64
61136;BME280;47021;51.340;12.432;2022-09-09T08:37:43;99730.63;;;24.54;49.16
61136;BME280;47021;51.340;12.432;2022-09-09T08:40:26;99726.25;;;24.41;49.58
61136;BME280;47021;51.340;12.432;2022-09-09T08:42:57;99727.47;;;24.45;50.05
61136;BME280;47021;51.340;12.432;2022-09-09T08:45:37;99732.34;;;24.78;49.28
61136;BME280;47021;51.340;12.432;2022-09-09T08:51:10;99736.69;;;25.02;49.05
61136;BME280;47021;51.340;12.432;2022-09-09T08:53:42;99737.81;;;24.24;50.18
61136;BME280;47021;51.340;12.432;2022-09-09T08:56:21;99740.19;;;24.43;49.83
61136;BME280;47021;51.340;12.432;2022-09-09T08:58:51;99739.94;;;24.63;49.15
61136;BME280;47021;51.340;12.432;2022-09-09T09:01:49;99733.41;;;24.77;49.17
61136;BME280;47021;51.340;12.432;2022-09-09T09:04:52;99736.81;;;25.07;48.44
61136;BME280;47021;51.340;12.432;2022-09-09T09:07:28;99739.94;;;24.63;49.16
61136;BME280;47021;51.340;12.432;2022-09-09T09:16:25;99727.66;;;25.27;48.23
61136;BME280;47021;51.340;12.432;2022-09-09T09:19:17;99740.38;;;24.90;48.74
61136;BME280;47021;51.340;12.432;2022-09-09T09:24:52;99738.19;;;24.98;48.82
61136;BME280;47021;51.340;12.432;2022-09-09T09:27:36;99738.44;;;25.08;47.41
61136;BME280;47021;51.340;12.432;2022-09-09T09:30:17;99734.63;;;25.16;47.51
61136;BME280;47021;51.340;12.432;2022-09-09T09:32:55;99727.31;;;25.35;47.05
61136;BME280;47021;51.340;12.432;2022-09-09T09:35:40;99728.81;;;25.77;46.55
61136;BME280;47021;51.340;12.432;2022-09-09T09:38:24;99722.38;;;26.01;46.20
61136;BME280;47021;51.340;12.432;2022-09-09T09:40:56;99723.34;;;25.60;46.69
61136;BME280;47021;51.340;12.432;2022-09-09T09:43:35;99723.47;;;25.65;46.70
61136;BME280;47021;51.340;12.432;2022-09-09T09:46:20;99723.13;;;25.39;47.65
61136;BME280;47021;51.340;12.432;2022-09-09T09:49:05;99718.25;;;25.70;46.72
61136;BME280;47021;51.340;12.432;2022-09-09T09:51:35;99724.28;;;26.29;45.34
61136;BME280;47021;51.340;12.432;2022-09-09T09:54:17;99725.75;;;26.65;44.63
61136;BME280;47021;51.340;12.432;2022-09-09T09:56:44;99720.97;;;26.38;45.00
61136;BME280;47021;51.340;12.432;2022-09-09T10:01:51;99724.94;;;25.96;46.21
61136;BME280;47021;51.340;12.432;2022-09-09T10:04:21;99725.28;;;26.39;45.80
61136;BME280;47021;51.340;12.432;2022-09-09T10:06:47;99722.88;;;26.38;44.95
61136;BME280;47021;51.340;12.432;2022-09-09T10:09:29;99722.09;;;26.71;44.19
61136;BME280;47021;51.340;12.432;2022-09-09T10:15:27;99721.81;;;27.17;44.72
61136;BME280;47021;51.340;12.432;2022-09-09T10:18:19;99725.50;;;26.94;44.62
61136;BME280;47021;51.340;12.432;2022-09-09T10:26:47;99720.59;;;26.46;45.14
61136;BME280;47021;51.340;12.432;2022-09-09T10:47:15;99710.69;;;27.42;44.03
61136;BME280;47021;51.340;12.432;2022-09-09T10:59:06;99705.78;;;26.27;45.17
61136;BME280;47021;51.340;12.432;2022-09-09T11:04:51;99708.31;;;26.34;45.80
61136;BME280;47021;51.340;12.432;2022-09-09T11:10:23;99698.47;;;26.23;45.03
61136;BME280;47021;51.340;12.432;2022-09-09T11:15:56;99704.44;;;26.13;45.69
61136;BME280;47021;51.340;12.432;2022-09-09T11:21:22;99697.88;;;26.66;44.26
61136;BME280;47021;51.340;12.432;2022-09-09T11:27:19;99684.44;;;26.77;43.39
61136;BME280;47021;51.340;12.432;2022-09-09T12:19:07;99659.69;;;27.37;40.87
61136;BME280;47021;51.340;12.432;2022-09-09T12:24:49;99660.94;;;26.51;42.38
61136;BME280;47021;51.340;12.432;2022-09-09T12:30:21;99650.31;;;26.39;42.82
61136;BME280;47021;51.340;12.432;2022-09-09T12:35:57;99655.75;;;27.27;41.57
61136;BME280;47021;51.340;12.432;2022-09-09T12:44:30;99640.19;;;28.38;40.03
61136;BME280;47021;51.340;12.432;2022-09-09T12:49:58;99634.97;;;28.53;39.03
61136;BME280;47021;51.340;12.432;2022-09-09T12:55:31;99625.66;;;29.02;38.26
61136;BME280;47021;51.340;12.432;2022-09-09T13:01:01;99627.84;;;28.37;37.81
61136;BME280;47021;51.340;12.432;2022-09-09T13:06:31;99617.09;;;28.69;37.04
61136;BME280;47021;51.340;12.432;2022-09-09T13:11:59;99626.41;;;29.24;37.41
61136;BME280;47021;51.340;12.432;2022-09-09T13:17:29;99616.06;;;28.75;37.35
61136;BME280;47021;51.340;12.432;2022-09-09T13:22:57;99611.75;;;27.67;38.22
61136;BME280;47021;51.340;12.432;2022-09-09T13:28:28;99609.25;;;26.67;39.21
61136;BME280;47021;51.340;12.432;2022-09-09T13:33:56;99614.66;;;27.22;38.42
61136;BME280;47021;51.340;12.432;2022-09-09T13:39:24;99618.25;;;27.11;39.55
61136;BME280;47021;51.340;12.432;2022-09-09T13:42:03;99611.38;;;27.58;38.65
61136;BME280;47021;51.340;12.432;2022-09-09T13:44:46;99620.63;;;27.67;38.72
61136;BME280;47021;51.340;12.432;2022-09-09T13:47:28;99613.53;;;27.83;39.05
61136;BME280;47021;51.340;12.432;2022-09-09T13:50:18;99605.06;;;27.91;38.28
61136;BME280;47021;51.340;12.432;2022-09-09T13:52:44;99612.59;;;27.29;39.68
61136;BME280;47021;51.340;12.432;2022-09-09T13:55:09;99618.81;;;27.13;39.80
61136;BME280;47021;51.340;12.432;2022-09-09T13:57:34;99621.72;;;27.11;40.30
61136;BME280;47021;51.340;12.432;2022-09-09T14:00:11;99631.31;;;27.24;40.13
61136;BME280;47021;51.340;12.432;2022-09-09T14:02:42;99650.22;;;26.79;41.99
61136;BME280;47021;51.340;12.432;2022-09-09T14:05:14;99655.75;;;25.76;44.96
61136;BME280;47021;51.340;12.432;2022-09-09T14:07:53;99669.31;;;25.00;47.15
61136;BME280;47021;51.340;12.432;2022-09-09T14:10:19;99693.41;;;23.93;50.77
61136;BME280;47021;51.340;12.432;2022-09-09T14:12:51;99707.88;;;23.67;52.56
61136;BME280;47021;51.340;12.432;2022-09-09T14:15:19;99673.81;;;23.69;50.86
61136;BME280;47021;51.340;12.432;2022-09-09T14:17:56;99664.53;;;24.38;49.36
61136;BME280;47021;51.340;12.432;2022-09-09T14:20:42;99670.84;;;24.67;50.33
61136;BME280;47021;51.340;12.432;2022-09-09T14:23:12;99661.34;;;24.71;50.15
61136;BME280;47021;51.340;12.432;2022-09-09T14:25:40;99661.50;;;24.76;50.55
61136;BME280;47021;51.340;12.432;2022-09-09T14:28:12;99650.72;;;25.17;50.42
61136;BME280;47021;51.340;12.432;2022-09-09T14:30:40;99650.81;;;25.22;50.96
61136;BME280;47021;51.340;12.432;2022-09-09T14:33:07;99636.31;;;25.53;51.58
61136;BME280;47021;51.340;12.432;2022-09-09T14:35:34;99636.63;;;25.56;52.00
61136;BME280;47021;51.340;12.432;2022-09-09T14:38:03;99637.06;;;25.65;52.88
61136;BME280;47021;51.340;12.432;2022-09-09T14:40:34;99635.63;;;25.74;53.70
61136;BME280;47021;51.340;12.432;2022-09-09T14:43:09;99633.88;;;25.79;53.64
61136;BME280;47021;51.340;12.432;2022-09-09T14:45:35;99625.53;;;25.76;52.83
61136;BME280;47021;51.340;12.432;2022-09-09T14:48:06;99628.91;;;26.00;52.59
61136;BME280;47021;51.340;12.432;2022-09-09T14:50:34;99623.03;;;25.86;50.30
61136;BME280;47021;51.340;12.432;2022-09-09T14:53:08;99620.00;;;25.94;48.49
61136;BME280;47021;51.340;12.432;2022-09-09T14:55:38;99625.03;;;26.19;48.95
61136;BME280;47021;51.340;12.432;2022-09-09T14:58:04;99620.09;;;26.27;48.22
61136;BME280;47021;51.340;12.432;2022-09-09T15:00:30;99625.63;;;26.37;47.24
61136;BME280;47021;51.340;12.432;2022-09-09T15:03:01;99617.91;;;26.41;48.38
61136;BME280;47021;51.340;12.432;2022-09-09T15:05:28;99625.00;;;26.63;48.01
61136;BME280;47021;51.340;12.432;2022-09-09T15:08:24;99618.06;;;27.56;46.44
61136;BME280;47021;51.340;12.432;2022-09-09T15:10:49;99611.88;;;27.77;45.49
61136;BME280;47021;51.340;12.432;2022-09-09T15:13:15;99612.44;;;28.01;46.17
61136;BME280;47021;51.340;12.432;2022-09-09T15:15:47;99625.22;;;28.47;46.38
61136;BME280;47021;51.340;12.432;2022-09-09T15:18:21;99610.13;;;28.41;45.60
61136;BME280;47021;51.340;12.432;2022-09-09T15:20:46;99621.69;;;28.15;45.82
61136;BME280;47021;51.340;12.432;2022-09-09T15:23:19;99619.44;;;28.28;45.43
61136;BME280;47021;51.340;12.432;2022-09-09T15:25:56;99622.50;;;28.15;45.51
61136;BME280;47021;51.340;12.432;2022-09-09T15:28:31;99617.00;;;28.00;45.75
61136;BME280;47021;51.340;12.432;2022-09-09T15:31:04;99619.03;;;27.93;44.58
61136;BME280;47021;51.340;12.432;2022-09-09T15:33:31;99620.75;;;27.77;45.55
61136;BME280;47021;51.340;12.432;2022-09-09T15:36:35;99616.56;;;27.86;45.81
61136;BME280;47021;51.340;12.432;2022-09-09T15:39:04;99623.28;;;27.89;45.37
61136;BME280;47021;51.340;12.432;2022-09-09T15:41:30;99625.22;;;27.93;44.61
61136;BME280;47021;51.340;12.432;2022-09-09T15:43:56;99621.94;;;27.86;45.39
61136;BME280;47021;51.340;12.432;2022-09-09T15:46:39;99617.38;;;27.87;45.61
61136;BME280;47021;51.340;12.432;2022-09-09T15:49:17;99623.75;;;28.03;45.97
61136;BME280;47021;51.340;12.432;2022-09-09T15:51:54;99614.69;;;27.65;45.67
61136;BME280;47021;51.340;12.432;2022-09-09T15:54:21;99611.81;;;27.93;44.09
61136;BME280;47021;51.340;12.432;2022-09-09T15:56:55;99606.78;;;27.75;43.88
61136;BME280;47021;51.340;12.432;2022-09-09T15:59:44;99615.44;;;27.61;44.36
61136;BME280;47021;51.340;12.432;2022-09-09T16:02:12;99603.88;;;27.82;44.24
61136;BME280;47021;51.340;12.432;2022-09-09T16:04:45;99605.13;;;27.74;44.88
61136;BME280;47021;51.340;12.432;2022-09-09T16:07:18;99614.56;;;27.77;44.75
61136;BME280;47021;51.340;12.432;2022-09-09T16:10:14;99624.22;;;28.00;44.21
61136;BME280;47021;51.340;12.432;2022-09-09T16:15:56;99605.13;;;27.53;43.83
61136;BME280;47021;51.340;12.432;2022-09-09T16:18:23;99613.75;;;27.76;43.97
61136;BME280;47021;51.340;12.432;2022-09-09T16:20:56;99593.91;;;27.34;42.92
61136;BME280;47021;51.340;12.432;2022-09-09T16:23:21;99602.72;;;27.51;43.12
61136;BME280;47021;51.340;12.432;2022-09-09T16:26:13;99609.69;;;27.74;41.81
61136;BME280;47021;51.340;12.432;2022-09-09T16:28:40;99606.44;;;27.72;41.39
61136;BME280;47021;51.340;12.432;2022-09-09T16:31:07;99618.00;;;27.72;41.78
61136;BME280;47021;51.340;12.432;2022-09-09T16:33:33;99615.69;;;27.81;41.42
61136;BME280;47021;51.340;12.432;2022-09-09T16:36:25;99610.50;;;27.96;41.01
61136;BME280;47021;51.340;12.432;2022-09-09T16:38:54;99612.13;;;27.75;40.97
61136;BME280;47021;51.340;12.432;2022-09-09T16:41:23;99614.09;;;27.85;41.65
61136;BME280;47021;51.340;12.432;2022-09-09T16:43:59;99601.69;;;27.57;40.61
61136;BME280;47021;51.340;12.432;2022-09-09T16:46:42;99598.09;;;27.47;41.80
61136;BME280;47021;51.340;12.432;2022-09-09T16:49:14;99599.22;;;27.51;41.73
61136;BME280;47021;51.340;12.432;2022-09-09T16:51:46;99599.50;;;26.94;41.73
61136;BME280;47021;51.340;12.432;2022-09-09T16:54:13;99604.44;;;27.02;42.05
61136;BME280;47021;51.340;12.432;2022-09-09T16:56:54;99625.91;;;26.69;43.29
61136;BME280;47021;51.340;12.432;2022-09-09T16:59:21;99624.13;;;26.58;43.86
61136;BME280;47021;51.340;12.432;2022-09-09T17:01:52;99627.38;;;26.15;45.08
61136;BME280;47021;51.340;12.432;2022-09-09T17:04:30;99643.53;;;26.09;45.63